Time;durP1;ratioP1;P1;durP2;ratioP2;P2;SDS_P1;SDS_P2;PMS_P1;PMS_P2;Temp;Humidity;BMP_temperature;BMP_pressure;BME280_temperature;BME280_humidity;BME280_pressure;Samples;Min_cycle;Max_cycle;Signal;HPM_P1;HPM_P2
2023/08/25 00:02:04;;;;;;;6.30;6.20;;;;;;;-141.02;100.00;39029.31;5093806;28;20229;-63
2023/08/25 00:04:32;;;;;;;6.35;6.25;;;;;;;-141.02;100.00;39113.69;5093473;28;20196;-61
2023/08/25 00:07:00;;;;;;;6.90;6.70;;;;;;;-141.02;100.00;39144.38;5093728;28;20253;-63
2023/08/25 00:09:27;;;;;;;6.47;6.38;;;;;;;-141.02;100.00;39121.34;5093359;28;20193;-64
2023/08/25 00:15:15;;;;;;;6.90;6.70;;;;;;;-141.02;100.00;39132.88;5093321;28;20181;-64
2023/08/25 00:17:42;;;;;;;7.80;7.60;;;;;;;-141.02;100.00;39263.25;5093108;28;20286;-61
2023/08/25 00:20:12;;;;;;;7.47;7.28;;;;;;;-141.02;100.00;39355.31;5093102;28;20284;-65
2023/08/25 00:22:40;;;;;;;7.10;6.90;;;;;;;-141.02;100.00;39619.97;5093414;28;20194;-62
2023/08/25 00:25:09;;;;;;;7.20;7.00;;;;;;;-141.02;100.00;39677.50;5093043;28;20664;-62
2023/08/25 00:27:36;;;;;;;7.00;6.80;;;;;;;-141.02;100.00;39867.41;5093031;28;20275;-63
2023/08/25 00:30:04;;;;;;;6.90;6.70;;;;;;;-141.02;100.00;39863.56;5092908;28;20635;-62
2023/08/25 00:32:31;;;;;;;7.63;7.43;;;;;;;-141.02;100.00;39658.34;5092846;28;20277;-63
2023/08/25 00:34:58;;;;;;;7.70;7.50;;;;;;;-141.02;100.00;39497.22;5093143;28;20202;-65
2023/08/25 00:37:25;;;;;;;8.07;7.88;;;;;;;-141.02;100.00;39420.53;5093140;28;20280;-66
2023/08/25 00:39:53;;;;;;;7.95;7.75;;;;;;;-141.02;100.00;39343.81;5092732;28;20654;-62
2023/08/25 00:42:20;;;;;;;8.18;7.97;;;;;;;-141.02;100.00;39447.38;5093221;28;20281;-61
2023/08/25 00:45:07;;;;;;;7.78;7.57;;;;;;;-141.02;100.00;39422.44;5092656;28;20194;-65
2023/08/25 00:47:45;;;;;;;8.40;8.20;;;;;;;-141.02;100.00;39441.63;5092921;28;20251;-67
2023/08/25 00:50:12;;;;;;;8.55;8.35;;;;;;;-141.02;100.00;39435.88;5092593;28;20197;-64
2023/08/25 00:52:41;;;;;;;7.43;7.22;;;;;;;-141.02;100.00;39504.91;5092578;28;20201;-66
2023/08/25 00:58:31;;;;;;;7.13;6.93;;;;;;;-141.02;100.00;39589.28;5092315;28;20237;-63
2023/08/25 01:01:02;;;;;;;7.07;6.88;;;;;;;-141.02;100.00;39689.03;5092717;28;20676;-63
2023/08/25 01:03:30;;;;;;;6.90;6.70;;;;;;;-141.02;100.00;39815.59;5092228;28;20186;-61
2023/08/25 01:05:58;;;;;;;6.45;6.32;;;;;;;-141.02;100.00;39873.16;5092622;28;20614;-65
2023/08/25 01:08:25;;;;;;;6.22;6.13;;;;;;;-141.02;100.00;39942.19;5092283;28;20200;-66
2023/08/25 01:11:01;;;;;;;7.00;6.80;;;;;;;-141.02;100.00;39827.13;5092282;28;20198;-68
2023/08/25 01:13:38;;;;;;;7.10;6.90;;;;;;;-141.02;100.00;39949.88;5092304;28;20221;-62
2023/08/25 01:16:08;;;;;;;7.47;7.28;;;;;;;-141.02;100.00;39923.03;5092240;28;20228;-67
2023/08/25 01:18:37;;;;;;;7.03;6.82;;;;;;;-141.02;100.00;40080.31;5093127;28;20222;-64
2023/08/25 01:21:06;;;;;;;7.50;7.30;;;;;;;-141.02;100.00;40195.41;5092147;28;20729;-65
2023/08/25 01:23:39;;;;;;;7.65;7.45;;;;;;;-141.02;100.00;40561.81;5092127;28;20289;-62
2023/08/25 01:26:08;;;;;;;6.70;6.50;;;;;;;-141.02;100.00;41730.34;5092339;28;20277;-62
2023/08/25 01:28:35;;;;;;;6.20;6.10;;;;;;;-141.02;100.00;42448.16;5092408;28;20197;-62
2023/08/25 01:31:04;;;;;;;6.10;6.00;;;;;;;-141.02;100.00;43897.72;5092037;28;20723;-66
2023/08/25 01:33:31;;;;;;;5.70;5.60;;;;;;;-141.02;100.00;44585.28;5091992;28;20197;-65
2023/08/25 01:36:10;;;;;;;5.78;5.68;;;;;;;-141.02;100.00;45013.63;5092323;28;20201;-65
2023/08/25 01:38:43;;;;;;;5.80;5.70;;;;;;;-141.02;100.00;45824.41;5092255;28;20220;-65
2023/08/25 01:41:19;;;;;;;5.70;5.60;;;;;;;-141.02;100.00;43932.28;5091965;28;20243;-65
2023/08/25 01:43:49;;;;;;;6.00;5.90;;;;;;;-141.02;100.00;44287.59;5092343;28;20217;-62
2023/08/25 01:46:25;;;;;;;6.00;5.90;;;;;;;-141.02;100.00;44627.53;5091917;28;20197;-65
2023/08/25 01:48:54;;;;;;;6.40;6.30;;;;;;;-141.02;100.00;44681.31;5091903;28;20284;-64
2023/08/25 01:51:38;;;;;;;6.60;6.40;;;;;;;-141.02;100.00;44902.22;5091836;28;20204;-63
2023/08/25 01:54:05;;;;;;;6.05;5.95;;;;;;;-141.02;100.00;44944.47;5092201;28;20193;-59
2023/08/25 01:56:34;;;;;;;6.20;6.10;;;;;;;-141.02;100.00;45313.31;5092105;28;20671;-63
2023/08/25 01:59:01;;;;;;;7.15;6.95;;;;;;;-141.02;100.00;45190.38;5091826;28;20241;-61
2023/08/25 02:02:19;;;;;;;5.75;5.65;;;;;;;-141.02;100.00;45478.53;5091811;28;20190;-62
2023/08/25 02:04:46;;;;;;;6.70;6.50;;;;;;;-141.02;100.00;44827.31;5091793;28;20190;-67
2023/08/25 02:07:13;;;;;;;6.28;6.18;;;;;;;-141.02;100.00;44276.06;5091735;28;20189;-64
2023/08/25 02:09:41;;;;;;;6.45;6.35;;;;;;;-141.02;100.00;43847.78;5092016;28;20293;-67
2023/08/25 02:12:09;;;;;;;6.50;6.35;;;;;;;-141.02;100.00;44141.63;5091689;28;20698;-67
2023/08/25 02:14:36;;;;;;;6.70;6.50;;;;;;;-141.02;100.00;43527.13;5093941;28;20282;-66
2023/08/25 02:17:03;;;;;;;6.80;6.60;;;;;;;-141.02;100.00;43024.06;5095496;28;20196;-68
2023/08/25 02:19:31;;;;;;;6.40;6.30;;;;;;;-141.02;100.00;42870.50;5095674;28;20633;-67
2023/08/25 02:21:58;;;;;;;6.47;6.38;;;;;;;-141.02;100.00;43239.09;5095734;28;20228;-67
2023/08/25 02:24:25;;;;;;;7.50;7.30;;;;;;;-141.02;100.00;44189.63;5095621;28;20289;-67
2023/08/25 02:26:52;;;;;;;6.40;6.30;;;;;;;-141.02;100.00;44706.28;5095982;28;20193;-67
2023/08/25 02:29:20;;;;;;;6.03;5.93;;;;;;;-141.02;100.00;47158.16;5095259;28;20240;-67
2023/08/25 02:32:06;;;;;;;5.30;5.20;;;;;;;-141.02;100.00;50325.50;5095819;28;20224;-67
2023/08/25 02:34:33;;;;;;;5.10;5.00;;;;;;;-141.02;100.00;52074.91;5095194;28;20552;-67
2023/08/25 02:37:05;;;;;;;5.20;5.10;;;;;;;-141.02;100.00;52074.91;5095436;28;20274;-67
2023/08/25 02:39:32;;;;;;;5.20;5.10;;;;;;;-141.02;100.00;52814.19;5094976;28;20733;-68
2023/08/25 02:41:59;;;;;;;4.97;4.88;;;;;;;-141.02;100.00;53307.13;5095040;28;20202;-66
2023/08/25 02:44:31;;;;;;;5.00;4.90;;;;;;;-141.02;100.00;52567.75;5095296;28;20198;-67
2023/08/25 02:46:59;;;;;;;5.10;5.00;;;;;;;-141.02;100.00;53307.13;5095235;28;20595;-66
2023/08/25 02:49:59;;;;;;;5.10;5.00;;;;;;;-141.02;100.00;57500.06;5094902;28;20243;-67
2023/08/25 02:52:26;;;;;;;3.95;3.85;;;;;;;-141.02;100.00;61204.03;5094854;28;20194;-67
2023/08/25 02:54:53;;;;;;;4.40;4.30;;;;;;;-141.02;100.00;62933.94;5095084;28;20225;-65
2023/08/25 02:57:20;;;;;;;4.10;4.00;;;;;;;-141.02;100.00;65901.53;5094757;28;20197;-67
2023/08/25 02:59:49;;;;;;;3.80;3.70;;;;;;;-141.02;100.00;68128.91;5094672;28;20269;-66
2023/08/25 03:02:16;;;;;;;3.70;3.60;;;;;;;-141.02;100.00;69119.34;5095020;28;20194;-67
2023/08/25 03:04:43;;;;;;;3.70;3.60;;;;;;;-141.02;100.00;68624.09;5094581;28;20204;-67
2023/08/25 03:07:10;;;;;;;3.60;3.50;;;;;;;-141.02;100.00;68376.50;5094838;28;20190;-67
2023/08/25 03:09:37;;;;;;;3.75;3.65;;;;;;;-141.02;100.00;68624.09;5094495;28;20194;-66
2023/08/25 03:12:04;;;;;;;3.90;3.80;;;;;;;-141.02;100.00;68128.91;5095145;28;20255;-67
2023/08/25 03:14:31;;;;;;;4.20;4.10;;;;;;;-141.02;100.00;68128.91;5094728;28;20202;-65
2023/08/25 03:17:01;;;;;;;4.05;3.95;;;;;;;-141.02;100.00;68376.50;5094714;28;20276;-66
2023/08/25 03:19:28;;;;;;;4.20;4.10;;;;;;;-141.02;100.00;68871.72;5094399;28;20316;-67
2023/08/25 03:21:55;;;;;;;4.15;4.05;;;;;;;-141.02;100.00;70605.50;5094589;28;20204;-67
2023/08/25 03:24:22;;;;;;;4.40;4.30;;;;;;;-141.02;100.00;70605.50;5094573;28;20197;-66
2023/08/25 03:26:48;;;;;;;4.50;4.40;;;;;;;-141.02;100.00;71101.03;5094497;28;20280;-64
2023/08/25 03:29:15;;;;;;;4.00;3.90;;;;;;;-141.02;100.00;71101.03;5094179;28;20258;-66
2023/08/25 03:31:42;;;;;;;4.30;4.20;;;;;;;-141.02;100.00;71596.63;5094125;28;20193;-65
2023/08/25 03:34:11;;;;;;;4.40;4.30;;;;;;;-141.02;100.00;72092.31;5094341;28;20335;-68
2023/08/25 03:36:38;;;;;;;4.07;3.97;;;;;;;-141.02;100.00;73083.88;5094252;28;20694;-67
2023/08/25 03:39:05;;;;;;;4.10;4.00;;;;;;;-141.02;100.00;74819.81;5094203;28;20231;-66
2023/08/25 03:41:32;;;;;;;3.92;3.83;;;;;;;-141.02;100.00;76308.44;5094175;28;20201;-66
2023/08/25 03:43:59;;;;;;;3.97;3.88;;;;;;;-141.02;100.00;77053.00;5094194;28;20252;-65
2023/08/25 03:46:26;;;;;;;3.90;3.80;;;;;;;-141.02;100.00;77797.72;5094151;28;20247;-66
2023/08/25 03:48:53;;;;;;;3.80;3.70;;;;;;;-141.02;100.00;78790.94;5094066;28;20190;-65
2023/08/25 03:51:22;;;;;;;4.60;4.50;;;;;;;-141.02;100.00;79784.44;5094030;28;20194;-67
2023/08/25 03:53:48;;;;;;;4.30;4.20;;;;;;;-141.02;100.00;80529.75;5093677;28;20198;-67
2023/08/25 03:56:15;;;;;;;4.40;4.30;;;;;;;-141.02;100.00;81275.25;5093600;28;20194;-66
2023/08/25 03:58:43;;;;;;;3.90;3.80;;;;;;;-141.02;100.00;82269.47;5093582;28;20789;-66
2023/08/25 04:01:10;;;;;;;4.20;4.10;;;;;;;-141.02;100.00;83263.97;5093792;28;20738;-65
2023/08/25 04:03:37;;;;;;;4.05;3.95;;;;;;;-141.02;100.00;84010.03;5093517;28;20739;-65
2023/08/25 04:06:04;;;;;;;4.30;4.20;;;;;;;-141.02;100.00;84756.25;5093693;28;20225;-67
2023/08/25 04:08:32;;;;;;;4.20;4.10;;;;;;;-141.02;100.00;86995.94;5093377;28;20755;-65
2023/08/25 04:10:59;;;;;;;3.90;3.80;;;;;;;-141.02;100.00;88489.84;5093621;28;20296;-63
2023/08/25 04:13:26;;;;;;;3.70;3.60;;;;;;;-141.02;100.00;88489.84;5093925;28;20227;-67
2023/08/25 04:15:57;;;;;;;3.95;3.85;;;;;;;-141.02;100.00;86995.94;5093210;28;20675;-64
2023/08/25 04:18:25;;;;;;;4.30;4.20;;;;;;;-141.02;100.00;84258.75;5093527;28;20564;-67
2023/08/25 04:20:52;;;;;;;4.72;4.63;;;;;;;-141.02;100.00;80778.25;5093039;28;20683;-61
2023/08/25 04:23:19;;;;;;;6.10;6.00;;;;;;;-141.02;100.00;77797.72;5093211;28;20723;-60
2023/08/25 04:25:47;;;;;;;6.80;6.60;;;;;;;-141.02;100.00;75812.16;5093414;28;20281;-66
2023/08/25 04:28:14;;;;;;;7.07;6.88;;;;;;;-141.02;100.00;74323.72;5093015;28;20739;-65
2023/08/25 04:30:41;;;;;;;7.40;7.20;;;;;;;-141.02;100.00;73827.72;5093266;28;20225;-65
2023/08/25 04:33:08;;;;;;;7.00;6.80;;;;;;;-141.02;100.00;73579.75;5093269;28;20293;-64
2023/08/25 04:35:36;;;;;;;5.82;5.72;;;;;;;-141.02;100.00;71596.63;5093250;28;20272;-65
2023/08/25 04:38:03;;;;;;;6.50;6.40;;;;;;;-141.02;100.00;69614.66;5092344;28;20662;-67
2023/08/25 04:40:30;;;;;;;6.80;6.60;;;;;;;-141.02;100.00;67881.38;5093001;28;20308;-67
2023/08/25 04:42:59;;;;;;;7.30;7.10;;;;;;;-141.02;100.00;63428.38;5093287;28;20232;-61
2023/08/25 04:45:26;;;;;;;8.65;8.45;;;;;;;-141.02;100.00;61451.13;5092720;28;20660;-66
2023/08/25 04:47:53;;;;;;;9.50;9.20;;;;;;;-141.02;100.00;59475.03;5092959;28;20270;-65
2023/08/25 04:50:20;;;;;;;9.95;9.65;;;;;;;-141.02;100.00;56513.03;5092948;28;20277;-65
2023/08/25 04:52:47;;;;;;;10.55;10.25;;;;;;;-141.02;100.00;54532.09;5092871;28;20636;-67
2023/08/25 04:55:14;;;;;;;10.77;10.48;;;;;;;-141.02;100.00;54056.31;5092531;28;20229;-67
2023/08/25 04:57:41;;;;;;;11.35;11.05;;;;;;;-141.02;100.00;52794.94;5092223;28;20671;-67
2023/08/25 05:00:11;;;;;;;11.52;11.23;;;;;;;-141.02;100.00;51495.53;5092835;28;20218;-67
2023/08/25 05:02:38;;;;;;;11.73;11.43;;;;;;;-141.02;100.00;51066.34;5092461;28;20193;-66
2023/08/25 05:05:07;;;;;;;11.27;10.98;;;;;;;-141.02;100.00;50292.81;5092761;28;20194;-67
2023/08/25 05:07:34;;;;;;;10.85;10.55;;;;;;;-141.02;100.00;49975.38;5092329;28;20572;-60
2023/08/25 05:10:01;;;;;;;11.15;10.85;;;;;;;-141.02;100.00;49759.91;5092246;28;20251;-59
2023/08/25 05:12:28;;;;;;;10.63;10.32;;;;;;;-141.02;100.00;49205.94;5092351;28;20574;-59
2023/08/25 05:14:55;;;;;;;10.30;10.00;;;;;;;-141.02;100.00;49569.47;5092627;28;20200;-61
2023/08/25 05:17:23;;;;;;;10.43;10.13;;;;;;;-141.02;100.00;49954.19;5092228;28;20743;-61
2023/08/25 05:19:52;;;;;;;10.55;10.25;;;;;;;-141.02;100.00;49667.56;5092101;28;20322;-66
2023/08/25 05:22:19;;;;;;;11.13;10.82;;;;;;;-141.02;100.00;49346.34;5092467;28;20198;-64
2023/08/25 05:24:46;;;;;;;10.98;10.68;;;;;;;-141.02;100.00;49075.13;5092492;28;20585;-59
2023/08/25 05:27:13;;;;;;;11.00;10.70;;;;;;;-141.02;100.00;48488.56;5092361;28;20233;-63
2023/08/25 05:29:40;;;;;;;10.85;10.55;;;;;;;-141.02;100.00;48619.34;5092364;28;20229;-64
2023/08/25 05:32:07;;;;;;;11.38;11.07;;;;;;;-141.02;100.00;48015.56;5092392;28;20280;-65
2023/08/25 05:34:36;;;;;;;10.88;10.57;;;;;;;-141.02;100.00;48684.72;5092559;28;20204;-66
2023/08/25 05:37:03;;;;;;;11.27;10.98;;;;;;;-141.02;100.00;48925.13;5092015;28;20679;-66
2023/08/25 05:39:30;;;;;;;10.07;9.77;;;;;;;-141.02;100.00;49936.88;5092168;28;20584;-60
2023/08/25 05:41:57;;;;;;;9.60;9.30;;;;;;;-141.02;100.00;50233.16;5092277;28;20202;-62
2023/08/25 05:44:24;;;;;;;10.10;9.80;;;;;;;-141.02;100.00;50981.66;5092223;28;20297;-65
2023/08/25 05:46:51;;;;;;;10.50;10.20;;;;;;;-141.02;100.00;50764.22;5091938;28;20698;-61
2023/08/25 05:49:18;;;;;;;11.52;11.23;;;;;;;-141.02;100.00;50550.63;5093392;28;20627;-62
2023/08/25 05:51:47;;;;;;;10.65;10.35;;;;;;;-141.02;100.00;50635.28;5096038;28;20255;-67
2023/08/25 05:54:15;;;;;;;10.52;10.23;;;;;;;-141.02;100.00;50154.28;5096012;28;20606;-64
2023/08/25 05:56:42;;;;;;;11.88;11.48;;;;;;;-141.02;100.00;49432.88;5095962;28;20204;-63
2023/08/25 05:59:09;;;;;;;12.50;12.10;;;;;;;-141.02;100.00;49480.97;5095784;28;20229;-66
2023/08/25 06:01:36;;;;;;;12.30;11.90;;;;;;;-141.02;100.00;49769.53;5096066;28;20308;-65
2023/08/25 06:04:03;;;;;;;12.07;11.68;;;;;;;-141.02;100.00;50281.25;5096135;28;20190;-65
2023/08/25 06:06:31;;;;;;;12.05;11.65;;;;;;;-141.02;100.00;50023.47;5095834;28;20198;-63
2023/08/25 06:08:59;;;;;;;12.27;11.88;;;;;;;-141.02;100.00;50585.25;5095685;28;20664;-67
2023/08/25 06:11:26;;;;;;;12.27;11.88;;;;;;;-141.02;100.00;49284.78;5095661;28;20739;-62
2023/08/25 06:13:53;;;;;;;11.20;10.90;;;;;;;-141.02;100.00;49704.13;5095591;28;20196;-64
2023/08/25 06:16:20;;;;;;;11.32;10.95;;;;;;;-141.02;100.00;49688.72;5095611;28;20660;-61
2023/08/25 06:18:47;;;;;;;12.32;11.93;;;;;;;-141.02;100.00;48846.28;5095787;28;20198;-64
2023/08/25 06:21:14;;;;;;;11.20;10.90;;;;;;;-141.02;100.00;49561.75;5095414;28;20316;-63
2023/08/25 06:23:41;;;;;;;11.57;11.27;;;;;;;-141.02;100.00;49152.06;5095429;28;20194;-62
2023/08/25 06:26:09;;;;;;;12.85;12.45;;;;;;;-141.02;100.00;48477.03;5095393;28;20233;-63
2023/08/25 06:28:36;;;;;;;11.98;11.57;;;;;;;-141.02;100.00;48938.59;5095683;28;20189;-60
2023/08/25 06:31:03;;;;;;;12.65;12.25;;;;;;;-141.02;100.00;48334.75;5095593;28;20662;-64
2023/08/25 06:33:31;;;;;;;13.55;13.15;;;;;;;-141.02;100.00;47992.50;5095202;28;20675;-63
2023/08/25 06:35:58;;;;;;;14.13;13.63;;;;;;;-141.02;100.00;47208.13;5095552;28;20298;-62
2023/08/25 06:38:25;;;;;;;14.30;13.80;;;;;;;-141.02;100.00;47481.09;5095394;28;20624;-63
2023/08/25 06:40:52;;;;;;;15.13;14.63;;;;;;;-141.02;100.00;46706.47;5094987;28;20771;-63
2023/08/25 06:43:21;;;;;;;14.65;14.15;;;;;;;-141.02;100.00;46819.84;5095408;28;20201;-63
2023/08/25 06:45:48;;;;;;;14.55;14.05;;;;;;;-141.02;100.00;46766.03;5095027;28;20201;-63
2023/08/25 06:48:15;;;;;;;14.90;14.40;;;;;;;-141.02;100.00;46796.78;5095303;28;20254;-64
2023/08/25 06:50:42;;;;;;;15.00;14.50;;;;;;;-141.02;100.00;47050.50;5094867;28;20193;-64
2023/08/25 06:53:09;;;;;;;16.60;16.00;;;;;;;-141.02;100.00;46074.19;5095174;28;20276;-57
2023/08/25 06:55:36;;;;;;;16.55;15.95;;;;;;;-141.02;100.00;46139.53;5095127;28;20226;-63
2023/08/25 06:58:05;;;;;;;16.20;15.60;;;;;;;-141.02;100.00;46931.34;5094611;28;20236;-60
2023/08/25 07:00:34;;;;;;;16.20;15.60;;;;;;;-141.02;100.00;46850.59;5093137;28;20224;-60
2023/08/25 07:03:03;;;;;;;15.93;15.32;;;;;;;-141.02;100.00;47012.06;5093888;28;20272;-60
2023/08/25 07:05:30;;;;;;;16.35;15.75;;;;;;;-141.02;100.00;46858.28;5093836;28;20281;-61
2023/08/25 07:07:58;;;;;;;17.20;16.50;;;;;;;-141.02;100.00;46602.66;5093784;28;20197;-63
2023/08/25 07:10:25;;;;;;;17.45;16.75;;;;;;;-141.02;100.00;47235.03;5093700;28;20198;-59
2023/08/25 07:12:52;;;;;;;17.90;17.17;;;;;;;-141.02;99.83;46973.63;5093394;28;20296;-62
2023/08/25 07:15:19;;;;;;;16.45;15.77;;;;;;;-141.02;99.83;47200.44;5093722;28;20221;-62
2023/08/25 07:17:48;;;;;;;18.05;17.27;;;;;;;-141.02;99.45;47142.78;5093317;28;20193;-62
2023/08/25 07:20:15;;;;;;;17.73;17.02;;;;;;;-141.02;99.27;47354.22;5093173;28;20221;-62
2023/08/25 07:22:42;;;;;;;17.52;16.83;;;;;;;-141.02;98.33;47765.63;5093204;28;20867;-61
2023/08/25 07:25:09;;;;;;;17.90;17.20;;;;;;;-141.02;96.15;47925.19;5093439;28;20276;-63
2023/08/25 07:27:36;;;;;;;17.80;17.10;;;;;;;-141.02;93.82;47384.97;5093190;28;20664;-63
2023/08/25 07:30:04;;;;;;;17.75;17.05;;;;;;;-141.02;94.17;47354.22;5093118;28;20637;-65
2023/08/25 07:32:32;;;;;;;17.63;16.92;;;;;;;-141.02;93.99;47411.88;5093349;28;20189;-57
2023/08/25 07:35:00;;;;;;;17.65;16.95;;;;;;;-141.02;94.52;47632.97;5093361;28;20202;-59
2023/08/25 07:37:27;;;;;;;18.40;17.60;;;;;;;-141.02;93.29;47519.53;5092968;28;20255;-65
2023/08/25 07:39:55;;;;;;;17.88;17.17;;;;;;;-141.02;91.46;47538.75;5092925;28;20202;-65
2023/08/25 07:42:23;;;;;;;17.83;17.13;;;;;;;-141.02;90.44;47315.78;5093126;28;20225;-64
2023/08/25 07:44:50;;;;;;;18.13;17.33;;;;;;;-141.02;89.04;47996.34;5092933;28;20690;-66
2023/08/25 07:47:17;;;;;;;18.77;17.98;;;;;;;-141.02;87.32;48419.34;5093139;28;20281;-65
2023/08/25 07:49:44;;;;;;;18.48;17.67;;;;;;;-141.02;86.66;47929.03;5092776;28;20197;-64
2023/08/25 07:52:12;;;;;;;18.35;17.55;;;;;;;-141.02;85.38;48959.75;5092788;28;20194;-64
2023/08/25 07:54:39;;;;;;;18.77;17.98;;;;;;;-141.02;83.24;48930.88;5092814;28;20229;-63
2023/08/25 07:57:07;;;;;;;18.45;17.65;;;;;;;-141.02;81.85;48107.84;5092976;28;20297;-65
2023/08/25 07:59:34;;;;;;;17.75;17.05;;;;;;;-141.02;82.05;48557.81;5046562;28;1334912;-65
2023/08/25 08:02:02;;;;;;;18.20;17.40;;;;;;;-141.02;79.18;48869.34;5093460;28;20702;-65
2023/08/25 08:04:30;;;;;;;17.98;17.17;;;;;;;-141.02;77.53;48634.72;5093776;28;20217;-64
2023/08/25 08:06:57;;;;;;;18.63;17.73;;;;;;;-141.02;76.79;48215.53;5092247;28;20660;-65
2023/08/25 08:09:26;;;;;;;18.83;17.92;;;;;;;-141.02;77.08;48832.81;5093772;28;20193;-65
2023/08/25 08:11:53;;;;;;;18.60;17.77;;;;;;;-141.02;76.44;49540.59;5092556;28;20198;-65
2023/08/25 08:14:20;;;;;;;18.75;17.85;;;;;;;-141.02;75.77;49125.16;5093408;28;20233;-63
2023/08/25 08:16:47;;;;;;;19.23;18.33;;;;;;;-141.02;73.35;48634.72;5093563;28;20606;-64
2023/08/25 08:19:14;;;;;;;19.15;18.25;;;;;;;-141.02;73.48;48215.53;5093513;28;20232;-64
2023/08/25 08:21:41;;;;;;;19.80;18.80;;;;;;;-141.02;71.62;48423.19;5093469;28;20308;-64
2023/08/25 08:24:09;;;;;;;18.58;17.67;;;;;;;-141.02;71.66;48223.22;5093432;28;20232;-65
2023/08/25 08:26:37;;;;;;;19.02;18.13;;;;;;;-141.02;69.52;48350.13;5093104;28;20202;-66
2023/08/25 08:29:04;;;;;;;18.40;17.50;;;;;;;-141.02;68.72;48355.91;5093050;28;20293;-61
2023/08/25 08:31:31;;;;;;;17.88;17.05;;;;;;;-141.02;70.41;46996.69;5092954;28;20651;-65
2023/08/25 08:33:58;;;;;;;17.65;16.85;;;;;;;-141.02;68.44;47071.66;5093222;28;20273;-65
2023/08/25 08:36:25;;;;;;;18.58;17.65;;;;;;;-141.02;68.15;47031.28;5092888;28;20518;-64
2023/08/25 08:38:52;;;;;;;18.05;17.15;;;;;;;-141.02;67.78;46598.81;5093140;28;20225;-63
2023/08/25 08:41:20;;;;;;;17.90;17.00;;;;;;;-141.02;67.17;46796.78;5092742;28;20232;-64
2023/08/25 08:43:52;;;;;;;18.48;17.52;;;;;;;-141.02;64.60;46696.84;5092768;28;20660;-66
2023/08/25 08:46:19;;;;;;;18.25;17.25;;;;;;;-141.02;64.70;46777.56;5093060;28;20225;-64
2023/08/25 08:48:48;;;;;;;17.98;17.08;;;;;;;-141.02;63.61;46969.78;5092665;28;20190;-65
2023/08/25 08:51:17;;;;;;;17.70;16.80;;;;;;;-141.02;62.07;47035.13;5092598;28;20194;-65
2023/08/25 08:53:44;;;;;;;17.77;16.88;;;;;;;-141.02;60.60;46881.34;5092554;28;20697;-66
2023/08/25 08:56:13;;;;;;;17.85;16.92;;;;;;;-141.02;60.04;47048.59;5092536;28;20289;-66
2023/08/25 08:58:42;;;;;;;17.88;16.98;;;;;;;-141.02;60.06;46693.00;5092557;28;20236;-63
2023/08/25 09:01:11;;;;;;;17.55;16.65;;;;;;;-141.02;58.93;47056.28;5092427;28;20222;-66
2023/08/25 09:03:39;;;;;;;17.55;16.65;;;;;;;-141.02;58.94;46379.75;5093474;28;20249;-64
2023/08/25 09:06:06;;;;;;;17.77;16.88;;;;;;;-141.02;58.62;46099.16;5092724;28;20274;-65
2023/08/25 09:08:35;;;;;;;17.42;16.52;;;;;;;-141.02;58.60;46008.84;5092425;28;20200;-62
2023/08/25 09:11:04;;;;;;;17.40;16.50;;;;;;;-141.02;58.36;45712.94;5092639;28;20622;-64
2023/08/25 09:13:34;;;;;;;17.65;16.75;;;;;;;-141.02;57.35;46074.19;5092279;28;20254;-66
2023/08/25 09:16:02;;;;;;;18.00;17.10;;;;;;;-141.02;56.60;46162.59;5092307;28;20204;-62
2023/08/25 09:18:37;;;;;;;17.60;16.70;;;;;;;-141.02;57.75;45109.69;5092264;28;20196;-64
2023/08/25 09:21:16;;;;;;;17.70;16.80;;;;;;;-141.02;59.51;44886.84;5092385;28;20315;-65
2023/08/25 09:23:52;;;;;;;17.55;16.65;;;;;;;-141.02;59.77;44829.22;5092089;28;20200;-65
2023/08/25 09:26:19;;;;;;;17.58;16.67;;;;;;;-141.02;57.81;45478.53;5092483;28;20186;-65
2023/08/25 09:28:47;;;;;;;17.60;16.70;;;;;;;-141.02;57.57;45209.59;5092451;28;20206;-64
2023/08/25 09:31:21;;;;;;;17.65;16.75;;;;;;;-141.02;56.11;45530.41;5092050;28;20596;-65
2023/08/25 09:33:51;;;;;;;17.60;16.70;;;;;;;-141.02;56.64;45493.91;5092396;28;20186;-65
2023/08/25 09:36:19;;;;;;;17.67;16.77;;;;;;;-141.02;55.23;45926.22;5091950;28;20585;-64
2023/08/25 09:38:47;;;;;;;17.75;16.85;;;;;;;-141.02;53.73;45895.50;5091989;28;20243;-65
2023/08/25 09:41:24;;;;;;;17.90;17.00;;;;;;;-141.02;52.19;45378.66;5092004;28;20268;-66
2023/08/25 09:43:52;;;;;;;17.83;16.92;;;;;;;-141.02;52.18;45532.34;5092252;28;20189;-64
2023/08/25 09:46:27;;;;;;;17.48;16.58;;;;;;;-141.02;52.85;44689.00;5091966;28;20284;-65
2023/08/25 09:49:01;;;;;;;17.58;16.67;;;;;;;-141.02;52.50;45311.41;5091970;28;20189;-65
2023/08/25 09:51:35;;;;;;;17.58;16.67;;;;;;;-141.02;51.46;45513.13;5091910;28;20205;-65
2023/08/25 09:54:06;;;;;;;17.58;16.67;;;;;;;-141.02;50.61;45501.59;5091932;28;20186;-66
2023/08/25 09:56:34;;;;;;;17.38;16.48;;;;;;;-141.02;50.24;45405.53;5092039;28;20182;-66
2023/08/25 09:59:03;;;;;;;17.17;16.27;;;;;;;-141.02;50.01;44873.41;5092156;28;20619;-66
2023/08/25 10:01:30;;;;;;;17.50;16.60;;;;;;;-141.02;50.29;45119.28;5091724;28;20703;-65
2023/08/25 10:03:59;;;;;;;17.52;16.63;;;;;;;-141.02;50.46;44756.22;5091757;28;20655;-65
2023/08/25 10:06:29;;;;;;;17.42;16.52;;;;;;;-141.02;50.85;44856.13;5091985;28;20273;-66
2023/08/25 10:08:56;;;;;;;17.27;16.38;;;;;;;-141.02;50.29;44798.50;5091758;28;20648;-65
2023/08/25 10:11:28;;;;;;;17.00;16.20;;;;;;;-141.02;50.12;44302.94;5092013;28;20229;-66
2023/08/25 10:13:57;;;;;;;16.88;16.08;;;;;;;-141.02;50.03;45257.63;5091653;28;20190;-64
2023/08/25 10:16:26;;;;;;;17.15;16.25;;;;;;;-141.02;48.88;45309.47;5091616;28;20209;-65
2023/08/25 10:18:56;;;;;;;17.15;16.25;;;;;;;-141.02;49.54;44898.38;5091671;28;20194;-64
2023/08/25 10:21:26;;;;;;;16.85;16.05;;;;;;;-141.02;48.21;44654.44;5091545;28;20221;-64
2023/08/25 10:23:55;;;;;;;17.13;16.33;;;;;;;-141.02;48.86;44214.59;5091564;28;20197;-66
2023/08/25 10:26:23;;;;;;;17.38;16.48;;;;;;;-141.02;48.07;44477.72;5091499;28;20194;-64
2023/08/25 10:28:51;;;;;;;16.77;15.98;;;;;;;-141.02;47.95;44706.28;5091851;28;20621;-66
2023/08/25 10:31:19;;;;;;;16.98;16.17;;;;;;;-141.02;46.83;44349.03;5091520;28;20201;-68
2023/08/25 10:33:47;;;;;;;17.30;16.40;;;;;;;-141.02;48.03;44479.66;5091459;28;20284;-66
2023/08/25 10:36:16;;;;;;;16.67;15.88;;;;;;;-141.02;47.01;44502.69;5094277;28;20205;-61
2023/08/25 10:39:08;;;;;;;16.95;16.15;;;;;;;-141.02;48.65;43957.25;5095262;28;20205;-58
2023/08/25 10:41:41;;;;;;;17.02;16.13;;;;;;;-141.02;47.56;44452.75;5095505;28;20286;-59
2023/08/25 10:44:10;;;;;;;17.10;16.25;;;;;;;-141.02;46.55;44785.03;5095447;28;20185;-63
2023/08/25 10:46:39;;;;;;;17.23;16.33;;;;;;;-141.02;46.44;44629.47;5095003;28;20209;-61
2023/08/25 10:49:11;;;;;;;17.00;16.10;;;;;;;-141.02;46.55;44556.47;5095347;28;20193;-60
2023/08/25 10:51:38;;;;;;;17.42;16.52;;;;;;;-141.02;46.53;44456.59;5095321;28;20197;-61
2023/08/25 10:54:17;;;;;;;17.55;16.65;;;;;;;-141.02;46.30;44581.44;5095190;28;20296;-59
2023/08/25 10:56:44;;;;;;;17.38;16.48;;;;;;;-141.02;46.02;44775.44;5095273;28;20189;-65
2023/08/25 10:59:11;;;;;;;17.30;16.40;;;;;;;-141.02;46.38;44639.06;5094660;28;20755;-63
2023/08/25 11:01:57;;;;;;;17.13;16.33;;;;;;;-141.02;46.29;44544.94;5094631;28;20316;-61
2023/08/25 11:04:25;;;;;;;16.88;16.08;;;;;;;-141.02;46.85;44195.41;5094861;28;20269;-67
2023/08/25 11:06:53;;;;;;;17.23;16.38;;;;;;;-141.02;45.88;44748.56;5094927;28;20614;-67
2023/08/25 11:09:35;;;;;;;16.73;15.93;;;;;;;-141.02;45.80;44621.78;5094912;28;20229;-68
2023/08/25 11:12:05;;;;;;;17.10;16.25;;;;;;;-141.02;45.42;44602.56;5094963;28;20182;-67
2023/08/25 11:14:35;;;;;;;17.50;16.60;;;;;;;-141.02;45.69;44483.47;5094585;28;20243;-67
2023/08/25 11:17:03;;;;;;;17.73;16.83;;;;;;;-141.02;46.29;44270.28;5094757;28;20204;-67
2023/08/25 11:19:32;;;;;;;18.27;17.27;;;;;;;-141.02;45.92;44103.22;5094520;28;20216;-66